^^
Datos históricos de la estación: Murcia-Puente Tocinos
Diario Informe para Abril 11, 2019 Unidades:  Ingés    Métrico   Ambas
Diario Semanal Mensual Anual
  Máxima: Mínima: Promedio:
Temperatura: 73 °F 64 °F 67.6 °F
Punto de rocio: 60.8 °F 40.1 °F 50.9 °F
Humedad: 86% 33% 57%
Velocidad viento: 13mph 1.8mph 7.8mph
Racha viento: 29mph - -
Viento- - SO
Presión: 30.1 in 29.9 in -
Precipitación: 0.03 in    
 
 
Tabla de datos para Abril 11, 2019
Hora Temperatura Punto de rocio Presión Viento Velocidad viento Racha viento Humedad Intensidad lluvia(por hora) Nubes
00:04 70.7 °F 40.3 °F 29.9 in ONO 5.4 mph 18.5 mph 33.3% 0 in
00:09 70.5 °F 40.1 °F 29.9 in ONO 6.2 mph 19.7 mph 33% 0 in
00:14 70.5 °F 40.3 °F 29.9 in ONO 10.7 mph 20 mph 33.3% 0 in
00:19 70.3 °F 40.6 °F 29.9 in NO 10.6 mph 16.1 mph 34% 0 in
00:24 70.2 °F 40.5 °F 29.9 in NO 10.2 mph 16 mph 34% 0 in
00:29 70.2 °F 40.5 °F 29.9 in NO 9.8 mph 15.9 mph 34% 0 in
00:34 70 °F 41 °F 29.9 in NO 7.4 mph 17.3 mph 34.9% 0 in
00:39 69.6 °F 40.8 °F 29.9 in NO 7.5 mph 17 mph 35% 0 in
00:44 69.4 °F 40.6 °F 29.9 in ONO 8.1 mph 17.3 mph 35% 0 in
00:49 69.4 °F 40.6 °F 29.9 in NO 8 mph 17 mph 35% 0 in
00:54 69.3 °F 40.5 °F 29.9 in NO 7.4 mph 12.7 mph 35.1% 0 in
00:59 69.3 °F 41 °F 29.9 in NO 7.4 mph 14.5 mph 36% 0 in
01:04 69.1 °F 41 °F 29.9 in ONO 7.4 mph 15 mph 36% 0 in
01:09 69.1 °F 41 °F 29.9 in ONO 7.7 mph 19.2 mph 36% 0 in
01:14 68.9 °F 41 °F 29.9 in ONO 9.2 mph 19 mph 36.1% 0 in
01:19 68.7 °F 41.4 °F 29.9 in ONO 9.3 mph 17.3 mph 36.9% 0 in
01:24 68.5 °F 41.4 °F 29.9 in ONO 9.7 mph 19.6 mph 37% 0 in
01:29 68.5 °F 41.4 °F 29.9 in ONO 9.9 mph 20 mph 37.3% 0 in
01:34 68.5 °F 41.9 °F 29.9 in ONO 11.2 mph 18.5 mph 38% 0 in
01:39 68.4 °F 41.9 °F 29.9 in ONO 11.1 mph 19 mph 38.2% 0 in
01:44 68.2 °F 42.3 °F 29.9 in ONO 10.7 mph 19.7 mph 39% 0 in
01:49 68.2 °F 42.3 °F 29.9 in NO 10.7 mph 20 mph 39% 0 in
01:54 68 °F 42.1 °F 29.9 in ONO 11.2 mph 18 mph 39% 0 in
01:59 67.8 °F 41.9 °F 29.9 in ONO 11 mph 17.3 mph 39% 0 in
02:04 67.8 °F 42.3 °F 29.9 in ONO 10.2 mph 17 mph 39.5% 0 in
02:09 67.6 °F 42.4 °F 29.9 in ONO 9.9 mph 16.3 mph 40% 0 in
02:14 67.5 °F 42.3 °F 29.9 in ONO 8.5 mph 17.3 mph 40% 0 in
02:19 67.5 °F 42.3 °F 29.9 in NO 8.8 mph 18.4 mph 40% 0 in
02:24 67.3 °F 42.1 °F 29.9 in ONO 10 mph 20.8 mph 40% 0 in
02:29 67.3 °F 42.3 °F 29.9 in ONO 10.2 mph 21.3 mph 40.2% 0 in
02:34 67.1 °F 42.6 °F 29.9 in ONO 11.2 mph 21 mph 41% 0 in
02:39 66.9 °F 42.4 °F 29.9 in NO 11 mph 17 mph 41% 0 in
02:44 66.7 °F 42.8 °F 29.9 in ONO 10 mph 18.4 mph 41.8% 0 in
02:49 66.7 °F 42.8 °F 29.9 in ONO 10.1 mph 20.8 mph 42% 0 in
02:54 66.6 °F 42.6 °F 29.9 in ONO 10.7 mph 21 mph 42% 0 in
02:59 66.6 °F 43 °F 29.9 in ONO 10.3 mph 17.5 mph 42.4% 0 in
03:04 66.4 °F 43.2 °F 29.9 in ONO 8.7 mph 18.4 mph 43% 0 in
03:09 66.4 °F 43.2 °F 29.9 in ONO 8.9 mph 18 mph 43% 0 in
03:14 66.2 °F 43.5 °F 29.9 in ONO 10 mph 16.1 mph 43.9% 0 in
03:19 66 °F 43.5 °F 29.9 in ONO 9.9 mph 20.7 mph 44% 0 in
03:24 65.8 °F 43.7 °F 29.9 in ONO 9.2 mph 21.3 mph 44.6% 0 in
03:29 65.8 °F 43.9 °F 29.9 in NO 9.6 mph 21 mph 45% 0 in
03:34 65.8 °F 43.9 °F 29.9 in ONO 11.8 mph 23.5 mph 45% 0 in
03:39 65.8 °F 44.2 °F 29.9 in ONO 11.9 mph 23 mph 45.5% 0 in
03:44 65.7 °F 44.2 °F 29.9 in ONO 12.5 mph 21 mph 46% 0 in
03:49 65.7 °F 44.2 °F 29.9 in ONO 12.1 mph 18 mph 46% 0 in
03:54 65.5 °F 44.2 °F 29.9 in ONO 9.7 mph 20.7 mph 46.3% 0 in
03:59 65.3 °F 44.4 °F 29.9 in ONO 9.8 mph 21 mph 47% 0 in
04:04 65.1 °F 44.4 °F 29.9 in ONO 10 mph 23.5 mph 47% 0 in
04:09 65.1 °F 44.4 °F 29.9 in ONO 10.2 mph 23 mph 47.1% 0 in
04:14 64.9 °F 44.8 °F 29.9 in ONO 11.2 mph 17 mph 48% 0 in
04:19 64.9 °F 44.8 °F 29.9 in ONO 10.9 mph 16.1 mph 48% 0 in
04:24 64.9 °F 44.8 °F 29.9 in ONO 9.2 mph 17.3 mph 48% 0 in
04:29 64.9 °F 44.8 °F 29.9 in ONO 9.2 mph 17.3 mph 48% 0 in
04:34 64.9 °F 44.8 °F 29.9 in ONO 9.2 mph 20.1 mph 48% 0 in
04:39 65.1 °F 45 °F 29.9 in ONO 9.4 mph 21 mph 48% 0 in
04:44 65.1 °F 45 °F 29.9 in ONO 10.7 mph 18 mph 48% 0 in
04:49 65.1 °F 45 °F 29.9 in ONO 10.3 mph 16 mph 48% 0 in
04:54 65.1 °F 45 °F 29.9 in ONO 8.5 mph 14 mph 48% 0 in
04:59 65.1 °F 45 °F 29.9 in ONO 8 mph 17.3 mph 48% 0 in
05:04 64.9 °F 44.8 °F 29.9 in ONO 6.2 mph 19.6 mph 48% 0 in
05:09 64.9 °F 44.8 °F 29.9 in ONO 6.6 mph 20 mph 48% 0 in
05:14 64.9 °F 44.8 °F 29.9 in ONO 9.2 mph 18.4 mph 48% 0 in
05:19 64.9 °F 44.8 °F 29.9 in ONO 9 mph 18 mph 48% 0 in
05:24 64.9 °F 44.8 °F 29.9 in ONO 8.1 mph 17.3 mph 48% 0 in
05:29 64.9 °F 44.8 °F 29.9 in ONO 8 mph 17 mph 48% 0 in
05:34 64.9 °F 44.8 °F 29.9 in ONO 7.4 mph 13 mph 48% 0 in
05:39 64.9 °F 44.8 °F 29.9 in ONO 6.8 mph 9.2 mph 48% 0 in
05:44 64.9 °F 44.8 °F 29.9 in NO 4.3 mph 10.4 mph 48% 0 in
05:49 64.9 °F 44.8 °F 29.9 in NNO 4.1 mph 10 mph 48% 0 in
05:54 64.9 °F 44.8 °F 29.9 in NNE 2.9 mph 5 mph 48% 0 in
05:59 64.9 °F 45 °F 29.9 in ENE 2.7 mph 3.6 mph 48.3% 0 in
06:04 64.9 °F 45 °F 29.9 in ONO 1.8 mph 6.9 mph 48.2% 0 in
06:09 64.9 °F 44.8 °F 29.9 in Oeste 2 mph 7 mph 48% 0 in
06:14 64.9 °F 44.8 °F 29.9 in SO 2.9 mph 6 mph 48% 0 in
06:19 64.9 °F 44.8 °F 29.9 in Sur 2.9 mph 6 mph 48% 0 in
06:24 64.9 °F 44.8 °F 29.9 in ONO 2.9 mph 12.7 mph 48% 0 in
06:29 65.1 °F 45 °F 29.9 in ONO 3.4 mph 13 mph 48% 0 in
06:34 65.1 °F 45 °F 29.9 in ONO 5.9 mph 12 mph 48% 0 in
06:39 65.3 °F 45 °F 29.9 in ONO 5.9 mph 12 mph 47.7% 0 in
06:44 65.3 °F 45 °F 29.9 in ONO 5.9 mph 10.4 mph 47.8% 0 in
06:49 65.3 °F 45.1 °F 29.9 in ONO 5.8 mph 12.7 mph 48% 0 in
06:54 65.1 °F 45 °F 29.9 in ONO 5.4 mph 13 mph 48% 0 in
06:59 65.1 °F 45 °F 29.9 in ONO 5.7 mph 13 mph 48% 0 in
07:04 65.1 °F 45 °F 29.9 in ONO 6.9 mph 13 mph 48% 0 in
07:09 65.3 °F 45.1 °F 29.9 in ONO 6.9 mph 13 mph 48% 0 in
07:14 65.3 °F 45.1 °F 29.9 in ONO 6.9 mph 13 mph 48% 0 in
07:19 65.5 °F 45.1 °F 29.9 in ONO 6.7 mph 10.4 mph 48% 0 in
07:24 65.5 °F 45.3 °F 29.9 in Oeste 5.9 mph 10 mph 48% 0 in
07:29 65.7 °F 45.3 °F 29.9 in Oeste 5.6 mph 10 mph 48% 0 in
07:34 65.7 °F 45.3 °F 29.9 in Oeste 4.3 mph 9 mph 48% 0 in
07:39 65.7 °F 45.5 °F 29.9 in OSO 4.3 mph 9 mph 48% 0 in
07:44 65.8 °F 45.3 °F 29.9 in OSO 4.7 mph 8.7 mph 47.4% 0 in
07:49 66 °F 45.1 °F 29.9 in SO 4.8 mph 10.7 mph 47% 0 in
07:54 66 °F 45.1 °F 29.9 in OSO 5.4 mph 11 mph 47% 0 in
07:59 66 °F 45.7 °F 29.9 in Oeste 5.3 mph 10 mph 47.6% 0 in
08:04 66.2 °F 45.9 °F 29.9 in ONO 4.7 mph 15 mph 48% 0 in
08:09 66.4 °F 45.9 °F 29.9 in ONO 5.2 mph 15 mph 47.7% 0 in
08:14 66.6 °F 45.7 °F 29.9 in ONO 7.6 mph 17.5 mph 47% 0 in
08:19 66.6 °F 45.7 °F 29.9 in ONO 8 mph 17.3 mph 47% 0 in
08:24 66.7 °F 45.9 °F 29.9 in ONO 9.7 mph 17.3 mph 47% 0 in
08:29 66.7 °F 45.9 °F 29.9 in ONO 9.6 mph 17.3 mph 47% 0 in
08:34 66.9 °F 46 °F 29.9 in ONO 9.2 mph 19.2 mph 47% 0 in
08:39 66.9 °F 46 °F 29.9 in Oeste 9.3 mph 20 mph 47% 0 in
08:44 66.9 °F 46 °F 29.9 in ONO 9.7 mph 20 mph 47% 0 in
08:49 66.9 °F 46 °F 29.9 in ONO 9.6 mph 17.5 mph 47% 0 in
08:54 66.9 °F 46 °F 29.9 in ONO 9.2 mph 17.3 mph 47% 0 in
08:59 67.1 °F 46.2 °F 29.9 in ONO 9.1 mph 16.1 mph 47% 0 in
09:04 67.3 °F 46 °F 29.9 in ONO 8.7 mph 18.5 mph 46.5% 0 in
09:09 67.3 °F 45.9 °F 29.9 in ONO 8.9 mph 19 mph 46% 0 in
09:14 67.5 °F 45.9 °F 29.9 in ONO 9.7 mph 17 mph 46% 0 in
09:19 67.5 °F 45.9 °F 29.9 in ONO 9.6 mph 18.1 mph 46% 0 in
09:24 67.5 °F 45.9 °F 29.9 in ONO 9.2 mph 18.4 mph 46% 0 in
09:29 67.5 °F 45.9 °F 29.9 in Oeste 9.3 mph 18 mph 46% 0 in
09:34 67.5 °F 46 °F 29.9 in Oeste 9.7 mph 18.4 mph 46.2% 0 in
09:39 67.5 °F 46.6 °F 29.9 in ONO 9.7 mph 18 mph 47% 0 in
09:44 67.5 °F 46.8 °F 29.9 in ONO 9.7 mph 19.2 mph 47.5% 0 in
09:49 67.1 °F 47.1 °F 29.9 in ONO 9.8 mph 23 mph 48.7% 0 in
09:54 66.7 °F 47.3 °F 29.9 in ONO 10.2 mph 23 mph 49.7% 0 in
09:59 66.6 °F 47.3 °F 29.9 in ONO 10.1 mph 21.3 mph 50% 0 in
10:04 66.6 °F 47.3 °F 29.9 in ONO 10 mph 21.3 mph 50% 0 in
10:09 66.4 °F 47.3 °F 29.9 in ONO 10.4 mph 21 mph 50.2% 0 in
10:14 66.2 °F 48 °F 29.9 in ONO 12.3 mph 24.2 mph 52% 0 in
10:19 65.8 °F 49.1 °F 30 in ONO 11.9 mph 24 mph 55% 0 in
10:24 65.1 °F 49.5 °F 30 in ONO 10 mph 19 mph 56.9% 0 in
10:29 64.8 °F 49.5 °F 30 in ONO 10 mph 19 mph 57.5% 0 in
10:34 64.8 °F 49.6 °F 30 in ONO 10.2 mph 18.4 mph 57.9% 0 in
10:39 64.8 °F 50.4 °F 30 in ONO 10.2 mph 18 mph 59.7% 0 in
10:44 64.4 °F 50.9 °F 30 in ONO 10.2 mph 17.3 mph 61.8% 0 in
10:49 64 °F 51.4 °F 30 in ONO 9.8 mph 17 mph 63.3% 0 in
10:54 64 °F 51.8 °F 30 in Oeste 8.1 mph 15 mph 64.4% 0 in
10:59 64 °F 52 °F 30 in Oeste 7.8 mph 15 mph 65.2% 0 in
11:04 64 °F 52.3 °F 30 in Oeste 6.9 mph 13.7 mph 65.9% 0 in
11:09 64.2 °F 52.3 °F 30 in Oeste 6.8 mph 14 mph 65.5% 0 in
11:14 64.2 °F 52 °F 30 in Oeste 6.2 mph 15 mph 64.3% 0 in
11:19 64.4 °F 51.6 °F 30 in Oeste 6.5 mph 15 mph 63.2% 0 in
11:24 64.8 °F 51.8 °F 30 in OSO 7.6 mph 13.7 mph 62.8% 0 in
11:29 64.9 °F 51.6 °F 30 in Oeste 7.4 mph 14.5 mph 61.9% 0 in
11:34 65.3 °F 51.6 °F 30 in OSO 6.4 mph 15 mph 61.6% 0 in
11:39 65.7 °F 51.6 °F 30 in Oeste 6.3 mph 10 mph 60.5% 0 in
11:44 65.8 °F 51.4 °F 30 in Oeste 5.9 mph 12.7 mph 59.6% 0 in
11:49 66 °F 51.3 °F 30 in Oeste 6.2 mph 15.2 mph 59% 0 in
11:54 66.4 °F 51.6 °F 30 in Oeste 7.4 mph 15 mph 59% 0 in
11:59 66.7 °F 51.6 °F 30 in OSO 7.3 mph 14 mph 58.3% 0 in
12:04 66.9 °F 51.8 °F 30 in OSO 6.9 mph 13 mph 58.1% 0 in
12:09 67.3 °F 52 °F 30 in OSO 6.8 mph 11 mph 58% 0 in
12:14 67.5 °F 52.2 °F 30 in ONO 6.4 mph 12.7 mph 57.9% 0 in
12:19 68 °F 52.2 °F 30 in ONO 6.4 mph 15 mph 57% 0 in
12:24 68.4 °F 52.2 °F 30 in ONO 6.4 mph 15 mph 56% 0 in
12:29 68.9 °F 52.5 °F 30 in NO 6.6 mph 13 mph 56% 0 in
12:34 69.4 °F 52.7 °F 30 in NO 7.4 mph 18.5 mph 55.6% 0 in
12:39 69.8 °F 52.7 °F 30 in NNO 7.6 mph 19 mph 54.9% 0 in
12:44 70 °F 52.9 °F 30 in North 8.5 mph 13 mph 54.4% 0 in
12:49 70.2 °F 53.1 °F 30 in NNE 8.4 mph 15.2 mph 55% 0 in
12:54 69.6 °F 53.2 °F 30 in NNE 8.1 mph 15 mph 56% 0 in
12:59 69.6 °F 53.2 °F 30 in NNE 7.8 mph 13.8 mph 56% 0 in
13:04 69.6 °F 53.2 °F 30 in NNE 6.9 mph 14 mph 56% 0 in
13:09 70 °F 53.6 °F 30 in North 7 mph 16.1 mph 56% 0 in
13:14 70.2 °F 53.8 °F 30 in North 7.4 mph 25.3 mph 56% 0 in
13:19 69.8 °F 54.1 °F 30 in North 8.2 mph 25 mph 57.6% 0 in
13:24 69.1 °F 54.5 °F 30 in NNE 12.5 mph 22 mph 59.9% 0 in
13:29 69.1 °F 54.1 °F 30 in NNE 12.1 mph 22.3 mph 59.1% 0 in
13:34 69.3 °F 53.8 °F 30 in North 10 mph 24.2 mph 58.2% 0 in
13:39 69.4 °F 53.8 °F 30 in North 10.3 mph 24 mph 57.7% 0 in
13:44 69.4 °F 54.1 °F 30 in North 11.8 mph 24.6 mph 57.9% 0 in
13:49 69.4 °F 54 °F 30 in North 11.7 mph 25 mph 58% 0 in
13:54 69.3 °F 54 °F 30 in North 11.4 mph 23 mph 58.1% 0 in
13:59 69.3 °F 54.1 °F 30 in North 11.7 mph 28.4 mph 59% 0 in
14:04 69.3 °F 54.3 °F 30 in North 13 mph 29 mph 58.9% 0 in
14:09 69.4 °F 54.1 °F 30 in North 12.8 mph 23 mph 57.9% 0 in
14:14 69.6 °F 54 °F 30 in North 11.8 mph 23 mph 57.4% 0 in
14:19 70 °F 54 °F 30 in North 11.7 mph 22 mph 57% 0 in
14:24 70.2 °F 54 °F 30 in NNO 11.2 mph 22.3 mph 56.4% 0 in
14:29 70.2 °F 54 °F 30 in North 11.1 mph 22 mph 56.2% 0 in
14:34 70.5 °F 54.1 °F 30 in North 10.7 mph 18 mph 56% 0 in
14:39 70.9 °F 54.1 °F 30 in North 10.3 mph 20.8 mph 55.7% 0 in
14:44 70.9 °F 53.8 °F 30 in North 8.5 mph 21 mph 54.8% 0 in
14:49 71.1 °F 54 °F 30 in NNE 8.9 mph 21 mph 54.9% 0 in
14:54 71.6 °F 54 °F 30 in NNE 10.7 mph 19 mph 53.9% 0 in
14:59 72 °F 53.8 °F 30 in North 10.6 mph 19.6 mph 53% 0 in
15:04 72 °F 54 °F 30 in North 10.2 mph 21.9 mph 53.2% 0 in
15:09 72.1 °F 54 °F 30 in NNE 10.4 mph 23 mph 53% 0 in
15:14 72 °F 54 °F 30 in NNE 11.4 mph 23 mph 53.2% 0 in
15:19 72.1 °F 54.3 °F 30 in North 11.1 mph 21 mph 53.4% 0 in
15:24 72.1 °F 54.1 °F 30 in North 9.7 mph 21 mph 53% 0 in
15:29 72.1 °F 54.1 °F 30 in North 9.4 mph 16 mph 53.1% 0 in
15:34 72.3 °F 54.3 °F 30 in North 8.1 mph 19.6 mph 52.9% 0 in
15:39 72.7 °F 54.1 °F 30 in North 8.1 mph 22.3 mph 52.2% 0 in
15:44 72.7 °F 54.1 °F 30 in NNE 8.5 mph 22 mph 52.3% 0 in
15:49 72.1 °F 53.8 °F 30 in North 8.7 mph 19.7 mph 52.3% 0 in
15:54 72 °F 54.1 °F 30 in North 9.7 mph 20.7 mph 53.5% 0 in
15:59 72.3 °F 54.7 °F 30 in North 9.7 mph 21 mph 54% 0 in
16:04 72.9 °F 55 °F 30 in North 9.7 mph 15.2 mph 53.7% 0 in
16:09 73 °F 55.2 °F 30 in NNE 9.5 mph 17.3 mph 53.8% 0 in
16:14 72.7 °F 55.2 °F 30 in North 8.5 mph 21.5 mph 54.2% 0 in
16:19 72.1 °F 55.2 °F 30 in NNE 8.8 mph 22 mph 55.3% 0 in
16:24 72 °F 55.6 °F 30 in NNE 10.2 mph 18 mph 56% 0 in
16:29 72 °F 55.8 °F 30 in NNO 10.1 mph 18.1 mph 56.6% 0 in
16:34 71.4 °F 56.1 °F 30 in North 9.2 mph 20.8 mph 58.3% 0 in
16:39 71.2 °F 56.5 °F 30 in North 9.3 mph 21 mph 59.9% 0 in
16:44 71.1 °F 56.5 °F 30 in North 9.7 mph 16.1 mph 60% 0 in
16:49 71.2 °F 56.5 °F 30 in NNE 9.2 mph 16 mph 59.8% 0 in
16:54 71.4 °F 56.3 °F 30 in North 6.9 mph 16.1 mph 58.7% 0 in
16:59 72 °F 56.3 °F 30 in NNE 7.3 mph 17.3 mph 57.9% 0 in
17:04 72 °F 55.6 °F 30 in NE 8.7 mph 21.9 mph 56.3% 0 in
17:09 72 °F 53.8 °F 30 in NE 9.1 mph 22 mph 52.9% 0 in
17:14 72 °F 53.6 °F 30 in NE 10.7 mph 22 mph 52.5% 0 in
17:19 71.8 °F 53.8 °F 30 in NNE 10.6 mph 19 mph 53% 0 in
17:24 71.8 °F 53.8 °F 30 in NE 10 mph 16.1 mph 53% 0 in
17:29 72.1 °F 53.6 °F 30 in NE 9.8 mph 20.8 mph 52.4% 0 in
17:34 72.3 °F 53.2 °F 30 in NE 8.5 mph 21.9 mph 51.1% 0 in
17:39 72.1 °F 53.6 °F 30 in NE 9.1 mph 22 mph 52.1% 0 in
17:44 71.6 °F 53.6 °F 30 in NE 12.5 mph 20 mph 53.3% 0 in
17:49 71.2 °F 53.8 °F 30 in NNE 12.2 mph 19 mph 54% 0 in
17:54 71.1 °F 53.8 °F 30 in NNE 10.7 mph 17.3 mph 54.5% 0 in
17:59 71.1 °F 53.8 °F 30 in NNE 10.4 mph 17 mph 54.1% 0 in
18:04 71.2 °F 54 °F 30 in NNE 9.2 mph 14 mph 54.5% 0 in
18:09 71.2 °F 54.1 °F 30 in NNE 8.9 mph 14 mph 55% 0 in
18:14 71.2 °F 54.3 °F 30 in NE 7.6 mph 16.1 mph 55.3% 0 in
18:19 70.9 °F 55.4 °F 30 in NNE 7.8 mph 16.1 mph 58.2% 0 in
18:24 70.2 °F 55.9 °F 30 in NNE 8.5 mph 16 mph 60.7% 0 in
18:29 70.2 °F 56.5 °F 30 in NNE 7.8 mph 12.5 mph 62% 0 in
18:34 69.6 °F 57.7 °F 30 in NNO 4.7 mph 13 mph 66.1% 0 in
18:39 69.1 °F 58.1 °F 30 in North 4.8 mph 13 mph 68.3% 0 in
18:44 68.7 °F 57.6 °F 30 in NNO 5.4 mph 10.4 mph 67.9% 0 in
18:49 68.5 °F 58.1 °F 30 in NO 5.6 mph 13 mph 69.4% 0 in
18:54 68 °F 58.8 °F 30 in North 6.4 mph 13 mph 72.7% 0 in
18:59 67.6 °F 58.6 °F 30 in NNE 6.2 mph 11.8 mph 73% 0 in
19:04 67.5 °F 58.3 °F 30.1 in NNE 5.4 mph 12 mph 72.2% 0 in
19:09 67.6 °F 58.3 °F 30.1 in North 5.4 mph 12 mph 71.7% 0 in
19:14 68 °F 58.5 °F 30.1 in NO 5.4 mph 9 mph 71.6% 0 in
19:19 68 °F 59 °F 30.1 in NNO 5.2 mph 8.7 mph 73.2% 0 in
19:24 67.6 °F 58.8 °F 30.1 in NNE 4 mph 9.2 mph 73% 0 in
19:29 67.6 °F 58.8 °F 30.1 in NNE 4.2 mph 11.5 mph 73.3% 0 in
19:34 67.6 °F 58.8 °F 30.1 in NE 5.2 mph 12 mph 73.5% 0 in
19:39 67.6 °F 59.2 °F 30.1 in NE 5 mph 8 mph 74% 0 in
19:44 67.6 °F 59 °F 30.1 in NNE 4 mph 11.8 mph 74% 0 in
19:49 67.5 °F 59 °F 30.1 in NE 4.3 mph 12 mph 74.4% 0 in
19:54 67.3 °F 59 °F 30.1 in NE 5.9 mph 12 mph 75% 0 in
19:59 67.1 °F 59 °F 30.1 in NNO 5.7 mph 9 mph 75.4% 0 in
20:04 66.9 °F 59.4 °F 30.1 in ONO 4.7 mph 9 mph 76.5% 0 in
20:09 66.7 °F 59.5 °F 30.1 in ONO 4.6 mph 6.2 mph 77.3% 0 in
20:14 66.7 °F 59.5 °F 30.1 in NO 4 mph 6.2 mph 78% 0 in
20:19 66.6 °F 59.7 °F 30.1 in NO 3.9 mph 6 mph 78.8% 0 in
20:24 66.6 °F 59.7 °F 30.1 in NO 3.6 mph 6 mph 79% 0 in
20:29 66.6 °F 59.7 °F 30.1 in NNO 3.4 mph 5 mph 79% 0 in
20:34 66.6 °F 59.5 °F 30.1 in ONO 2.4 mph 5 mph 78.5% 0 in
20:39 66.6 °F 59.7 °F 30.1 in ONO 2.5 mph 5.9 mph 79% 0 in
20:44 66.6 °F 59.7 °F 30.1 in Oeste 3.1 mph 6 mph 79% 0 in
20:49 66.4 °F 59.7 °F 30.1 in Oeste 3.2 mph 6.2 mph 79% 0 in
20:54 66.4 °F 59.7 °F 30.1 in ONO 3.6 mph 6 mph 79% 0 in
20:59 66.6 °F 59.7 °F 30.1 in OSO 3.2 mph 5 mph 78.8% 0 in
21:04 66.6 °F 59.7 °F 30.1 in SSE 2 mph 9.2 mph 78.5% 0.01 in
21:09 66.7 °F 59.7 °F 30.1 in ESE 2.5 mph 11.5 mph 77.9% 0.01 in
21:14 66.7 °F 59.9 °F 30.1 in Sur 4.7 mph 12 mph 78.6% 0.02 in
21:19 66.7 °F 60.3 °F 30.1 in Oeste 4.6 mph 7 mph 80.1% 0.02 in
21:24 66.6 °F 60.4 °F 30.1 in Oeste 4 mph 7.6 mph 81% 0.02 in
21:29 66.2 °F 60.4 °F 30.1 in OSO 4.2 mph 10.4 mph 82% 0.03 in
21:34 66 °F 60.6 °F 30.1 in OSO 5.2 mph 10 mph 82.5% 0.03 in
21:39 66 °F 60.6 °F 30.1 in Oeste 5.3 mph 9.7 mph 83% 0.03 in
21:44 65.8 °F 60.6 °F 30.1 in OSO 5.9 mph 10 mph 83.4% 0.03 in
21:49 65.8 °F 60.4 °F 30.1 in OSO 5.8 mph 9.2 mph 83% 0.03 in
21:54 65.8 °F 60.6 °F 30.1 in OSO 5.2 mph 9 mph 83.1% 0.03 in
21:59 65.8 °F 60.4 °F 30.1 in OSO 5.2 mph 9.2 mph 83% 0.03 in
22:04 65.8 °F 60.4 °F 30.1 in OSO 5.4 mph 9 mph 83.1% 0.03 in
22:09 65.8 °F 60.6 °F 30.1 in OSO 5.2 mph 8 mph 83.4% 0.02 in
22:14 65.8 °F 60.4 °F 30.1 in OSO 4.3 mph 7 mph 83% 0.02 in
22:19 65.8 °F 60.6 °F 30.1 in SO 4.1 mph 8.1 mph 83.4% 0.01 in
22:24 65.7 °F 60.8 °F 30.1 in SSO 3.1 mph 9.7 mph 84% 0.01 in
22:29 65.7 °F 60.8 °F 30.1 in SO 3.5 mph 10 mph 84.7% 0.01 in
22:34 65.5 °F 60.8 °F 30.1 in SO 5.4 mph 9 mph 85% 0 in
22:39 65.5 °F 60.8 °F 30.1 in OSO 5.2 mph 8 mph 85% 0 in
22:44 65.5 °F 60.8 °F 30.1 in SO 4.3 mph 6 mph 84.7% 0 in
22:49 65.5 °F 60.6 °F 30.1 in SSO 4.3 mph 7.4 mph 84.6% 0 in
22:54 65.1 °F 60.6 °F 30.1 in SSO 4 mph 8.1 mph 85% 0 in
22:59 65.1 °F 60.4 °F 30.1 in SSO 4.3 mph 8.1 mph 85% 0 in
23:04 65.1 °F 60.4 °F 30.1 in SSO 5.4 mph 8.1 mph 85% 0 in
23:09 64.9 °F 60.6 °F 30.1 in SSO 5.3 mph 7.4 mph 85.6% 0 in
23:14 64.9 °F 60.6 °F 30.1 in SO 5.2 mph 8.1 mph 86% 0 in
23:19 64.9 °F 60.4 °F 30.1 in SSO 5.1 mph 8.7 mph 85.3% 0 in
23:24 64.9 °F 60.4 °F 30.1 in SSO 4.7 mph 9.2 mph 85% 0 in
23:29 65.1 °F 60.4 °F 30.1 in SSO 4.8 mph 9.2 mph 85% 0 in
23:34 65.1 °F 60.4 °F 30.1 in SO 5.4 mph 9.2 mph 84.6% 0 in
23:39 65.1 °F 60.3 °F 30.1 in SSO 5.3 mph 9.2 mph 84% 0 in
23:44 65.1 °F 60.1 °F 30.1 in SO 5.2 mph 9 mph 83.5% 0 in
23:49 65.1 °F 59.9 °F 30.1 in SO 5.1 mph 8.1 mph 83.2% 0 in
23:54 65.3 °F 60.1 °F 30.1 in SO 4.7 mph 8.5 mph 83% 0 in
23:59 65.3 °F 59.9 °F 30.1 in SO 4.7 mph 9 mph 82.9% 0 in
Murcia-Puente Tocinos, España
Compliments of Weather Underground - 3 mb

La estación de MeteoMurcia.com, publica sus datos en los siguientes proyectos:

Weather Underground PWS IMURCIAP2 Meteoclimatic www.awekas.at

W3Counter
Web Analytics